sensor_id;sensor_type;location;lat;lon;timestamp;temperature;humidity
15359;DHT22;7779;49.596;11.070;2023-08-31T00:00:43;15.80;78.10
15359;DHT22;7779;49.596;11.070;2023-08-31T00:03:10;15.80;78.10
15359;DHT22;7779;49.596;11.070;2023-08-31T00:05:45;15.80;78.10
15359;DHT22;7779;49.596;11.070;2023-08-31T00:08:12;15.80;79.10
15359;DHT22;7779;49.596;11.070;2023-08-31T00:10:38;15.70;78.10
15359;DHT22;7779;49.596;11.070;2023-08-31T00:13:04;15.70;78.20
15359;DHT22;7779;49.596;11.070;2023-08-31T00:15:32;15.70;78.30
15359;DHT22;7779;49.596;11.070;2023-08-31T00:17:59;15.70;78.00
15359;DHT22;7779;49.596;11.070;2023-08-31T00:20:25;15.70;78.30
15359;DHT22;7779;49.596;11.070;2023-08-31T00:22:52;15.70;78.30
15359;DHT22;7779;49.596;11.070;2023-08-31T00:25:18;15.70;78.40
15359;DHT22;7779;49.596;11.070;2023-08-31T00:27:44;15.70;78.40
15359;DHT22;7779;49.596;11.070;2023-08-31T00:30:14;15.70;78.40
15359;DHT22;7779;49.596;11.070;2023-08-31T00:32:41;15.70;78.70
15359;DHT22;7779;49.596;11.070;2023-08-31T00:35:08;15.70;78.70
15359;DHT22;7779;49.596;11.070;2023-08-31T00:37:35;15.70;78.80
15359;DHT22;7779;49.596;11.070;2023-08-31T00:40:01;15.70;79.40
15359;DHT22;7779;49.596;11.070;2023-08-31T00:42:30;15.70;78.80
15359;DHT22;7779;49.596;11.070;2023-08-31T00:44:56;15.70;78.80
15359;DHT22;7779;49.596;11.070;2023-08-31T00:47:22;15.70;78.90
15359;DHT22;7779;49.596;11.070;2023-08-31T00:49:48;15.70;79.00
15359;DHT22;7779;49.596;11.070;2023-08-31T00:52:15;15.70;79.00
15359;DHT22;7779;49.596;11.070;2023-08-31T00:54:41;15.70;79.10
15359;DHT22;7779;49.596;11.070;2023-08-31T00:57:10;15.70;79.20
15359;DHT22;7779;49.596;11.070;2023-08-31T00:59:36;15.80;79.40
15359;DHT22;7779;49.596;11.070;2023-08-31T01:02:21;15.70;79.40
15359;DHT22;7779;49.596;11.070;2023-08-31T01:05:21;15.80;80.50
15359;DHT22;7779;49.596;11.070;2023-08-31T01:08:03;15.80;81.00
15359;DHT22;7779;49.596;11.070;2023-08-31T01:10:55;15.80;79.40
15359;DHT22;7779;49.596;11.070;2023-08-31T01:13:30;15.80;80.40
15359;DHT22;7779;49.596;11.070;2023-08-31T01:16:02;15.80;79.60
15359;DHT22;7779;49.596;11.070;2023-08-31T01:18:31;15.80;79.80
15359;DHT22;7779;49.596;11.070;2023-08-31T01:21:06;15.80;79.60
15359;DHT22;7779;49.596;11.070;2023-08-31T01:23:54;15.80;80.10
15359;DHT22;7779;49.596;11.070;2023-08-31T01:26:22;15.80;80.90
15359;DHT22;7779;49.596;11.070;2023-08-31T01:28:50;15.90;79.70
15359;DHT22;7779;49.596;11.070;2023-08-31T01:31:17;15.90;79.80
15359;DHT22;7779;49.596;11.070;2023-08-31T01:33:43;15.90;79.80
15359;DHT22;7779;49.596;11.070;2023-08-31T01:39:05;15.90;80.20
15359;DHT22;7779;49.596;11.070;2023-08-31T01:41:37;15.90;80.00
15359;DHT22;7779;49.596;11.070;2023-08-31T01:44:06;15.90;79.70
15359;DHT22;7779;49.596;11.070;2023-08-31T01:46:36;15.90;79.70
15359;DHT22;7779;49.596;11.070;2023-08-31T01:49:04;15.90;79.70
15359;DHT22;7779;49.596;11.070;2023-08-31T01:51:31;15.80;79.80
15359;DHT22;7779;49.596;11.070;2023-08-31T01:53:56;15.90;79.70
15359;DHT22;7779;49.596;11.070;2023-08-31T01:56:24;15.80;79.60
15359;DHT22;7779;49.596;11.070;2023-08-31T01:58:49;15.80;79.50
15359;DHT22;7779;49.596;11.070;2023-08-31T02:01:15;15.80;79.60
15359;DHT22;7779;49.596;11.070;2023-08-31T02:03:41;15.80;79.70
15359;DHT22;7779;49.596;11.070;2023-08-31T02:06:07;15.80;79.80
15359;DHT22;7779;49.596;11.070;2023-08-31T02:08:32;15.80;79.90
15359;DHT22;7779;49.596;11.070;2023-08-31T02:10:58;15.80;80.00
15359;DHT22;7779;49.596;11.070;2023-08-31T02:13:24;15.80;80.10
15359;DHT22;7779;49.596;11.070;2023-08-31T02:15:53;15.80;80.10
15359;DHT22;7779;49.596;11.070;2023-08-31T02:18:19;15.80;80.50
15359;DHT22;7779;49.596;11.070;2023-08-31T02:20:45;15.80;80.20
15359;DHT22;7779;49.596;11.070;2023-08-31T02:23:11;15.80;80.20
15359;DHT22;7779;49.596;11.070;2023-08-31T02:25:37;15.80;80.30
15359;DHT22;7779;49.596;11.070;2023-08-31T02:28:03;15.80;80.10
15359;DHT22;7779;49.596;11.070;2023-08-31T02:30:30;15.80;80.10
15359;DHT22;7779;49.596;11.070;2023-08-31T02:32:56;15.80;80.00
15359;DHT22;7779;49.596;11.070;2023-08-31T02:35:22;15.80;80.10
15359;DHT22;7779;49.596;11.070;2023-08-31T02:37:48;15.80;80.00
15359;DHT22;7779;49.596;11.070;2023-08-31T02:40:14;15.70;79.30
15359;DHT22;7779;49.596;11.070;2023-08-31T02:42:41;15.70;79.70
15359;DHT22;7779;49.596;11.070;2023-08-31T02:45:07;15.70;79.70
15359;DHT22;7779;49.596;11.070;2023-08-31T02:47:33;15.70;79.60
15359;DHT22;7779;49.596;11.070;2023-08-31T02:49:58;15.70;79.40
15359;DHT22;7779;49.596;11.070;2023-08-31T02:52:25;15.60;79.20
15359;DHT22;7779;49.596;11.070;2023-08-31T02:54:51;15.60;79.20
15359;DHT22;7779;49.596;11.070;2023-08-31T02:57:17;15.50;79.10
15359;DHT22;7779;49.596;11.070;2023-08-31T02:59:48;15.50;79.00
15359;DHT22;7779;49.596;11.070;2023-08-31T03:02:15;15.40;78.80
15359;DHT22;7779;49.596;11.070;2023-08-31T03:04:41;15.40;78.70
15359;DHT22;7779;49.596;11.070;2023-08-31T03:07:07;15.30;78.70
15359;DHT22;7779;49.596;11.070;2023-08-31T03:09:32;15.30;78.80
15359;DHT22;7779;49.596;11.070;2023-08-31T03:11:58;15.20;78.90
15359;DHT22;7779;49.596;11.070;2023-08-31T03:14:24;15.20;79.10
15359;DHT22;7779;49.596;11.070;2023-08-31T03:16:49;15.20;79.20
15359;DHT22;7779;49.596;11.070;2023-08-31T03:19:15;15.10;79.10
15359;DHT22;7779;49.596;11.070;2023-08-31T03:21:41;15.10;79.00
15359;DHT22;7779;49.596;11.070;2023-08-31T03:24:13;15.10;79.10
15359;DHT22;7779;49.596;11.070;2023-08-31T03:26:39;15.00;79.70
15359;DHT22;7779;49.596;11.070;2023-08-31T03:29:05;15.00;79.00
15359;DHT22;7779;49.596;11.070;2023-08-31T03:31:30;14.90;78.90
15359;DHT22;7779;49.596;11.070;2023-08-31T03:33:57;14.90;78.90
15359;DHT22;7779;49.596;11.070;2023-08-31T03:36:23;14.80;78.80
15359;DHT22;7779;49.596;11.070;2023-08-31T03:38:49;14.80;78.80
15359;DHT22;7779;49.596;11.070;2023-08-31T03:41:15;14.70;78.60
15359;DHT22;7779;49.596;11.070;2023-08-31T03:43:41;14.70;78.70
15359;DHT22;7779;49.596;11.070;2023-08-31T03:46:06;14.60;78.60
15359;DHT22;7779;49.596;11.070;2023-08-31T03:48:32;14.60;78.60
15359;DHT22;7779;49.596;11.070;2023-08-31T03:50:58;14.50;78.50
15359;DHT22;7779;49.596;11.070;2023-08-31T03:53:24;14.50;78.50
15359;DHT22;7779;49.596;11.070;2023-08-31T03:55:54;14.40;78.40
15359;DHT22;7779;49.596;11.070;2023-08-31T03:58:22;14.40;78.50
15359;DHT22;7779;49.596;11.070;2023-08-31T04:00:50;14.30;79.00
15359;DHT22;7779;49.596;11.070;2023-08-31T04:03:18;14.30;78.50
15359;DHT22;7779;49.596;11.070;2023-08-31T04:05:43;14.20;78.30
15359;DHT22;7779;49.596;11.070;2023-08-31T04:08:12;14.10;79.30
15359;DHT22;7779;49.596;11.070;2023-08-31T04:10:38;14.10;78.40
15359;DHT22;7779;49.596;11.070;2023-08-31T04:13:03;14.10;78.40
15359;DHT22;7779;49.596;11.070;2023-08-31T04:15:29;14.00;78.30
15359;DHT22;7779;49.596;11.070;2023-08-31T04:17:56;14.00;78.50
15359;DHT22;7779;49.596;11.070;2023-08-31T04:20:22;13.90;78.50
15359;DHT22;7779;49.596;11.070;2023-08-31T04:22:48;13.90;78.50
15359;DHT22;7779;49.596;11.070;2023-08-31T04:25:14;13.80;78.50
15359;DHT22;7779;49.596;11.070;2023-08-31T04:27:39;13.80;79.70
15359;DHT22;7779;49.596;11.070;2023-08-31T04:30:06;13.70;78.60
15359;DHT22;7779;49.596;11.070;2023-08-31T04:32:35;13.70;78.70
15359;DHT22;7779;49.596;11.070;2023-08-31T04:35:03;13.60;78.80
15359;DHT22;7779;49.596;11.070;2023-08-31T04:37:33;13.60;79.10
15359;DHT22;7779;49.596;11.070;2023-08-31T04:39:59;13.60;79.30
15359;DHT22;7779;49.596;11.070;2023-08-31T04:42:25;13.60;79.40
15359;DHT22;7779;49.596;11.070;2023-08-31T04:44:50;13.60;79.50
15359;DHT22;7779;49.596;11.070;2023-08-31T04:47:16;13.60;79.60
15359;DHT22;7779;49.596;11.070;2023-08-31T04:49:42;13.50;79.60
15359;DHT22;7779;49.596;11.070;2023-08-31T04:52:08;13.50;79.80
15359;DHT22;7779;49.596;11.070;2023-08-31T04:54:33;13.50;79.90
15359;DHT22;7779;49.596;11.070;2023-08-31T04:56:59;13.50;80.00
15359;DHT22;7779;49.596;11.070;2023-08-31T04:59:25;13.50;80.00
15359;DHT22;7779;49.596;11.070;2023-08-31T05:01:51;13.50;80.10
15359;DHT22;7779;49.596;11.070;2023-08-31T05:04:16;13.50;80.10
15359;DHT22;7779;49.596;11.070;2023-08-31T05:06:42;13.50;80.20
15359;DHT22;7779;49.596;11.070;2023-08-31T05:09:08;13.50;80.30
15359;DHT22;7779;49.596;11.070;2023-08-31T05:14:01;13.60;80.30
15359;DHT22;7779;49.596;11.070;2023-08-31T05:16:27;13.60;81.20
15359;DHT22;7779;49.596;11.070;2023-08-31T05:18:52;13.60;81.60
15359;DHT22;7779;49.596;11.070;2023-08-31T05:21:18;13.60;81.90
15359;DHT22;7779;49.596;11.070;2023-08-31T05:23:44;13.70;82.40
15359;DHT22;7779;49.596;11.070;2023-08-31T05:26:09;13.70;82.70
15359;DHT22;7779;49.596;11.070;2023-08-31T05:28:35;13.80;83.00
15359;DHT22;7779;49.596;11.070;2023-08-31T05:31:01;13.90;83.20
15359;DHT22;7779;49.596;11.070;2023-08-31T05:33:30;14.00;83.30
15359;DHT22;7779;49.596;11.070;2023-08-31T05:36:01;14.00;83.30
15359;DHT22;7779;49.596;11.070;2023-08-31T05:38:29;14.10;84.90
15359;DHT22;7779;49.596;11.070;2023-08-31T05:41:02;14.20;83.50
15359;DHT22;7779;49.596;11.070;2023-08-31T05:43:29;14.30;83.60
15359;DHT22;7779;49.596;11.070;2023-08-31T05:45:54;14.30;83.40
15359;DHT22;7779;49.596;11.070;2023-08-31T05:48:20;14.40;84.60
15359;DHT22;7779;49.596;11.070;2023-08-31T05:50:46;14.50;83.10
15359;DHT22;7779;49.596;11.070;2023-08-31T05:53:11;14.50;82.80
15359;DHT22;7779;49.596;11.070;2023-08-31T05:55:37;14.60;82.70
15359;DHT22;7779;49.596;11.070;2023-08-31T05:58:03;14.60;82.60
15359;DHT22;7779;49.596;11.070;2023-08-31T06:00:29;14.60;82.50
15359;DHT22;7779;49.596;11.070;2023-08-31T06:02:54;14.60;82.40
15359;DHT22;7779;49.596;11.070;2023-08-31T06:05:20;14.70;82.60
15359;DHT22;7779;49.596;11.070;2023-08-31T06:07:46;14.70;82.60
15359;DHT22;7779;49.596;11.070;2023-08-31T06:10:11;14.80;82.80
15359;DHT22;7779;49.596;11.070;2023-08-31T06:12:38;14.80;83.40
15359;DHT22;7779;49.596;11.070;2023-08-31T06:15:04;14.90;82.90
15359;DHT22;7779;49.596;11.070;2023-08-31T06:17:30;15.00;83.20
15359;DHT22;7779;49.596;11.070;2023-08-31T06:19:56;15.00;83.50
15359;DHT22;7779;49.596;11.070;2023-08-31T06:22:22;15.10;83.90
15359;DHT22;7779;49.596;11.070;2023-08-31T06:24:50;15.20;84.20
15359;DHT22;7779;49.596;11.070;2023-08-31T06:27:16;15.30;84.50
15359;DHT22;7779;49.596;11.070;2023-08-31T06:29:43;15.40;84.80
15359;DHT22;7779;49.596;11.070;2023-08-31T06:32:09;15.60;85.10
15359;DHT22;7779;49.596;11.070;2023-08-31T06:34:34;15.70;85.20
15359;DHT22;7779;49.596;11.070;2023-08-31T06:37:00;15.90;85.30
15359;DHT22;7779;49.596;11.070;2023-08-31T06:39:27;16.00;85.00
15359;DHT22;7779;49.596;11.070;2023-08-31T06:41:53;16.20;84.80
15359;DHT22;7779;49.596;11.070;2023-08-31T06:44:28;16.30;84.60
15359;DHT22;7779;49.596;11.070;2023-08-31T06:46:55;16.40;84.30
15359;DHT22;7779;49.596;11.070;2023-08-31T06:49:22;16.50;84.00
15359;DHT22;7779;49.596;11.070;2023-08-31T06:51:49;16.60;83.60
15359;DHT22;7779;49.596;11.070;2023-08-31T06:54:14;16.80;83.30
15359;DHT22;7779;49.596;11.070;2023-08-31T06:56:40;16.80;83.00
15359;DHT22;7779;49.596;11.070;2023-08-31T06:59:06;16.90;82.80
15359;DHT22;7779;49.596;11.070;2023-08-31T07:01:32;17.00;82.90
15359;DHT22;7779;49.596;11.070;2023-08-31T07:04:00;17.10;82.60
15359;DHT22;7779;49.596;11.070;2023-08-31T07:06:26;17.20;82.60
15359;DHT22;7779;49.596;11.070;2023-08-31T07:08:52;17.20;81.60
15359;DHT22;7779;49.596;11.070;2023-08-31T07:11:18;17.30;82.00
15359;DHT22;7779;49.596;11.070;2023-08-31T07:13:44;17.40;81.90
15359;DHT22;7779;49.596;11.070;2023-08-31T07:16:09;17.50;81.90
15359;DHT22;7779;49.596;11.070;2023-08-31T07:18:36;17.50;80.50
15359;DHT22;7779;49.596;11.070;2023-08-31T07:21:02;17.60;81.40
15359;DHT22;7779;49.596;11.070;2023-08-31T07:23:30;17.60;81.10
15359;DHT22;7779;49.596;11.070;2023-08-31T07:25:59;17.70;81.00
15359;DHT22;7779;49.596;11.070;2023-08-31T07:28:30;17.70;80.60
15359;DHT22;7779;49.596;11.070;2023-08-31T07:31:02;17.80;80.80
15359;DHT22;7779;49.596;11.070;2023-08-31T07:33:30;17.90;80.30
15359;DHT22;7779;49.596;11.070;2023-08-31T07:35:58;17.90;80.60
15359;DHT22;7779;49.596;11.070;2023-08-31T07:38:24;18.00;80.70
15359;DHT22;7779;49.596;11.070;2023-08-31T07:40:51;18.10;80.60
15359;DHT22;7779;49.596;11.070;2023-08-31T07:43:17;18.10;80.50
15359;DHT22;7779;49.596;11.070;2023-08-31T07:45:43;18.20;80.50
15359;DHT22;7779;49.596;11.070;2023-08-31T07:48:08;18.30;80.40
15359;DHT22;7779;49.596;11.070;2023-08-31T07:50:34;18.40;80.60
15359;DHT22;7779;49.596;11.070;2023-08-31T07:53:00;18.50;80.20
15359;DHT22;7779;49.596;11.070;2023-08-31T07:55:26;18.60;79.80
15359;DHT22;7779;49.596;11.070;2023-08-31T07:57:51;18.60;79.60
15359;DHT22;7779;49.596;11.070;2023-08-31T08:00:17;18.70;79.60
15359;DHT22;7779;49.596;11.070;2023-08-31T08:02:45;18.80;79.30
15359;DHT22;7779;49.596;11.070;2023-08-31T08:05:11;18.90;78.80
15359;DHT22;7779;49.596;11.070;2023-08-31T08:07:37;18.90;78.50
15359;DHT22;7779;49.596;11.070;2023-08-31T08:10:03;19.00;78.10
15359;DHT22;7779;49.596;11.070;2023-08-31T08:12:42;19.00;77.60
15359;DHT22;7779;49.596;11.070;2023-08-31T08:15:12;19.10;76.00
15359;DHT22;7779;49.596;11.070;2023-08-31T08:17:38;19.10;76.70
15359;DHT22;7779;49.596;11.070;2023-08-31T08:20:06;19.10;76.30
15359;DHT22;7779;49.596;11.070;2023-08-31T08:22:32;19.10;75.70
15359;DHT22;7779;49.596;11.070;2023-08-31T08:24:58;19.00;75.40
15359;DHT22;7779;49.596;11.070;2023-08-31T08:27:24;19.00;75.30
15359;DHT22;7779;49.596;11.070;2023-08-31T08:29:49;19.10;75.40
15359;DHT22;7779;49.596;11.070;2023-08-31T08:32:15;19.10;75.50
15359;DHT22;7779;49.596;11.070;2023-08-31T08:34:41;19.10;75.20
15359;DHT22;7779;49.596;11.070;2023-08-31T08:37:07;19.10;75.00
15359;DHT22;7779;49.596;11.070;2023-08-31T08:39:32;19.20;74.90
15359;DHT22;7779;49.596;11.070;2023-08-31T08:41:59;19.20;74.80
15359;DHT22;7779;49.596;11.070;2023-08-31T08:44:32;19.20;74.50
15359;DHT22;7779;49.596;11.070;2023-08-31T08:47:02;19.30;73.30
15359;DHT22;7779;49.596;11.070;2023-08-31T08:49:30;19.30;73.70
15359;DHT22;7779;49.596;11.070;2023-08-31T08:51:58;19.40;73.90
15359;DHT22;7779;49.596;11.070;2023-08-31T08:54:25;19.40;73.60
15359;DHT22;7779;49.596;11.070;2023-08-31T08:56:51;19.50;72.90
15359;DHT22;7779;49.596;11.070;2023-08-31T08:59:16;19.50;69.50
15359;DHT22;7779;49.596;11.070;2023-08-31T09:01:44;19.50;71.80
15359;DHT22;7779;49.596;11.070;2023-08-31T09:04:11;19.40;71.10
15359;DHT22;7779;49.596;11.070;2023-08-31T09:06:38;19.40;71.00
15359;DHT22;7779;49.596;11.070;2023-08-31T09:09:04;19.40;70.70
15359;DHT22;7779;49.596;11.070;2023-08-31T09:11:30;19.40;70.40
15359;DHT22;7779;49.596;11.070;2023-08-31T09:13:57;19.30;69.80
15359;DHT22;7779;49.596;11.070;2023-08-31T09:16:32;19.30;69.30
15359;DHT22;7779;49.596;11.070;2023-08-31T09:18:59;19.30;67.90
15359;DHT22;7779;49.596;11.070;2023-08-31T09:21:35;19.20;68.80
15359;DHT22;7779;49.596;11.070;2023-08-31T09:24:01;19.10;67.40
15359;DHT22;7779;49.596;11.070;2023-08-31T09:26:28;19.10;68.90
15359;DHT22;7779;49.596;11.070;2023-08-31T09:28:53;19.10;69.00
15359;DHT22;7779;49.596;11.070;2023-08-31T09:31:19;19.10;69.00
15359;DHT22;7779;49.596;11.070;2023-08-31T09:33:50;19.10;69.30
15359;DHT22;7779;49.596;11.070;2023-08-31T09:36:17;19.20;69.00
15359;DHT22;7779;49.596;11.070;2023-08-31T09:38:44;19.20;69.40
15359;DHT22;7779;49.596;11.070;2023-08-31T09:41:10;19.20;69.00
15359;DHT22;7779;49.596;11.070;2023-08-31T09:43:37;19.30;68.80
15359;DHT22;7779;49.596;11.070;2023-08-31T09:46:03;19.30;68.60
15359;DHT22;7779;49.596;11.070;2023-08-31T09:48:31;19.30;68.30
15359;DHT22;7779;49.596;11.070;2023-08-31T09:50:57;19.30;68.20
15359;DHT22;7779;49.596;11.070;2023-08-31T09:53:29;19.30;68.10
15359;DHT22;7779;49.596;11.070;2023-08-31T09:55:57;19.40;67.00
15359;DHT22;7779;49.596;11.070;2023-08-31T09:58:23;19.40;67.80
15359;DHT22;7779;49.596;11.070;2023-08-31T10:00:50;19.40;67.50
15359;DHT22;7779;49.596;11.070;2023-08-31T10:03:17;19.40;67.30
15359;DHT22;7779;49.596;11.070;2023-08-31T10:05:47;19.40;67.30
15359;DHT22;7779;49.596;11.070;2023-08-31T10:08:14;19.50;65.70
15359;DHT22;7779;49.596;11.070;2023-08-31T10:10:40;19.50;67.60
15359;DHT22;7779;49.596;11.070;2023-08-31T10:13:07;19.60;67.70
15359;DHT22;7779;49.596;11.070;2023-08-31T10:15:34;19.60;67.60
15359;DHT22;7779;49.596;11.070;2023-08-31T10:18:05;19.70;67.50
15359;DHT22;7779;49.596;11.070;2023-08-31T10:20:32;19.80;67.40
15359;DHT22;7779;49.596;11.070;2023-08-31T10:23:06;19.80;67.50
15359;DHT22;7779;49.596;11.070;2023-08-31T10:28:26;19.90;64.10
15359;DHT22;7779;49.596;11.070;2023-08-31T10:31:09;19.90;65.30
15359;DHT22;7779;49.596;11.070;2023-08-31T10:33:44;19.80;63.80
15359;DHT22;7779;49.596;11.070;2023-08-31T10:36:14;19.80;64.70
15359;DHT22;7779;49.596;11.070;2023-08-31T10:38:44;19.70;64.70
15359;DHT22;7779;49.596;11.070;2023-08-31T10:46:30;19.80;64.70
15359;DHT22;7779;49.596;11.070;2023-08-31T10:51:40;19.80;64.50
15359;DHT22;7779;49.596;11.070;2023-08-31T10:54:19;19.90;65.90
15359;DHT22;7779;49.596;11.070;2023-08-31T10:57:02;19.90;65.50
15359;DHT22;7779;49.596;11.070;2023-08-31T10:59:52;19.90;63.50
15359;DHT22;7779;49.596;11.070;2023-08-31T11:05:01;19.90;63.50
15359;DHT22;7779;49.596;11.070;2023-08-31T11:07:41;19.90;64.80
15359;DHT22;7779;49.596;11.070;2023-08-31T11:12:40;19.90;64.30
15359;DHT22;7779;49.596;11.070;2023-08-31T11:15:07;20.00;64.80
15359;DHT22;7779;49.596;11.070;2023-08-31T11:17:33;20.00;65.00
15359;DHT22;7779;49.596;11.070;2023-08-31T11:20:01;20.00;65.00
15359;DHT22;7779;49.596;11.070;2023-08-31T11:22:30;20.10;64.90
15359;DHT22;7779;49.596;11.070;2023-08-31T11:24:57;20.10;64.70
15359;DHT22;7779;49.596;11.070;2023-08-31T11:27:25;20.10;65.30
15359;DHT22;7779;49.596;11.070;2023-08-31T11:29:50;20.20;64.50
15359;DHT22;7779;49.596;11.070;2023-08-31T11:32:16;20.20;64.10
15359;DHT22;7779;49.596;11.070;2023-08-31T11:34:44;20.20;63.80
15359;DHT22;7779;49.596;11.070;2023-08-31T11:37:12;20.20;63.50
15359;DHT22;7779;49.596;11.070;2023-08-31T11:39:49;20.20;63.50
15359;DHT22;7779;49.596;11.070;2023-08-31T11:42:17;20.20;62.90
15359;DHT22;7779;49.596;11.070;2023-08-31T11:44:46;20.30;64.10
15359;DHT22;7779;49.596;11.070;2023-08-31T11:47:14;20.30;64.10
15359;DHT22;7779;49.596;11.070;2023-08-31T11:49:42;20.30;64.00
15359;DHT22;7779;49.596;11.070;2023-08-31T11:52:10;20.40;64.00
15359;DHT22;7779;49.596;11.070;2023-08-31T11:54:42;20.40;63.70
15359;DHT22;7779;49.596;11.070;2023-08-31T11:57:09;20.50;63.10
15359;DHT22;7779;49.596;11.070;2023-08-31T11:59:36;20.50;61.10
15359;DHT22;7779;49.596;11.070;2023-08-31T12:02:06;20.60;63.40
15359;DHT22;7779;49.596;11.070;2023-08-31T12:04:33;20.60;62.80
15359;DHT22;7779;49.596;11.070;2023-08-31T12:07:08;20.70;63.00
15359;DHT22;7779;49.596;11.070;2023-08-31T12:09:34;20.70;63.00
15359;DHT22;7779;49.596;11.070;2023-08-31T12:12:01;20.70;62.90
15359;DHT22;7779;49.596;11.070;2023-08-31T12:14:27;20.80;62.80
15359;DHT22;7779;49.596;11.070;2023-08-31T12:17:05;20.80;62.70
15359;DHT22;7779;49.596;11.070;2023-08-31T12:19:32;20.90;62.00
15359;DHT22;7779;49.596;11.070;2023-08-31T12:22:01;20.90;62.50
15359;DHT22;7779;49.596;11.070;2023-08-31T12:24:27;20.90;62.10
15359;DHT22;7779;49.596;11.070;2023-08-31T12:26:53;21.00;62.20
15359;DHT22;7779;49.596;11.070;2023-08-31T12:29:22;21.00;62.00
15359;DHT22;7779;49.596;11.070;2023-08-31T12:31:49;21.00;62.10
15359;DHT22;7779;49.596;11.070;2023-08-31T12:34:15;21.10;62.00
15359;DHT22;7779;49.596;11.070;2023-08-31T12:36:41;21.10;62.00
15359;DHT22;7779;49.596;11.070;2023-08-31T12:39:08;21.20;62.10
15359;DHT22;7779;49.596;11.070;2023-08-31T12:41:39;21.30;62.00
15359;DHT22;7779;49.596;11.070;2023-08-31T12:44:06;21.30;61.30
15359;DHT22;7779;49.596;11.070;2023-08-31T12:46:32;21.40;61.40
15359;DHT22;7779;49.596;11.070;2023-08-31T12:49:02;21.40;61.00
15359;DHT22;7779;49.596;11.070;2023-08-31T12:51:32;21.50;60.30
15359;DHT22;7779;49.596;11.070;2023-08-31T12:53:58;21.50;60.20
15359;DHT22;7779;49.596;11.070;2023-08-31T12:56:24;21.50;60.40
15359;DHT22;7779;49.596;11.070;2023-08-31T12:58:50;21.60;60.30
15359;DHT22;7779;49.596;11.070;2023-08-31T13:01:18;21.60;60.10
15359;DHT22;7779;49.596;11.070;2023-08-31T13:03:45;21.60;60.00
15359;DHT22;7779;49.596;11.070;2023-08-31T13:06:13;21.50;59.70
15359;DHT22;7779;49.596;11.070;2023-08-31T13:08:40;21.40;59.50
15359;DHT22;7779;49.596;11.070;2023-08-31T13:11:05;21.40;59.50
15359;DHT22;7779;49.596;11.070;2023-08-31T13:13:32;21.40;59.50
15359;DHT22;7779;49.596;11.070;2023-08-31T13:15:58;21.40;59.40
15359;DHT22;7779;49.596;11.070;2023-08-31T13:18:23;21.40;59.60
15359;DHT22;7779;49.596;11.070;2023-08-31T13:20:53;21.40;59.70
15359;DHT22;7779;49.596;11.070;2023-08-31T13:23:20;21.50;59.60
15359;DHT22;7779;49.596;11.070;2023-08-31T13:25:46;21.40;59.70
15359;DHT22;7779;49.596;11.070;2023-08-31T13:28:13;21.50;58.70
15359;DHT22;7779;49.596;11.070;2023-08-31T13:30:38;21.50;59.80
15359;DHT22;7779;49.596;11.070;2023-08-31T13:33:05;21.50;59.80
15359;DHT22;7779;49.596;11.070;2023-08-31T13:35:32;21.60;60.00
15359;DHT22;7779;49.596;11.070;2023-08-31T13:37:58;21.70;59.30
15359;DHT22;7779;49.596;11.070;2023-08-31T13:40:24;21.80;59.90
15359;DHT22;7779;49.596;11.070;2023-08-31T13:42:54;21.80;59.50
15359;DHT22;7779;49.596;11.070;2023-08-31T13:45:26;21.90;59.20
15359;DHT22;7779;49.596;11.070;2023-08-31T13:47:53;21.90;59.30
15359;DHT22;7779;49.596;11.070;2023-08-31T13:50:19;22.00;59.20
15359;DHT22;7779;49.596;11.070;2023-08-31T13:52:45;22.00;58.90
15359;DHT22;7779;49.596;11.070;2023-08-31T13:55:11;22.10;58.70
15359;DHT22;7779;49.596;11.070;2023-08-31T13:57:38;22.20;58.70
15359;DHT22;7779;49.596;11.070;2023-08-31T14:00:07;22.20;58.40
15359;DHT22;7779;49.596;11.070;2023-08-31T14:02:36;22.20;58.30
15359;DHT22;7779;49.596;11.070;2023-08-31T14:05:02;22.30;58.20
15359;DHT22;7779;49.596;11.070;2023-08-31T14:07:29;22.30;57.90
15359;DHT22;7779;49.596;11.070;2023-08-31T14:09:55;22.40;57.90
15359;DHT22;7779;49.596;11.070;2023-08-31T14:12:21;22.40;57.90
15359;DHT22;7779;49.596;11.070;2023-08-31T14:14:47;22.40;58.10
15359;DHT22;7779;49.596;11.070;2023-08-31T14:17:13;22.40;57.60
15359;DHT22;7779;49.596;11.070;2023-08-31T14:19:39;22.50;57.30
15359;DHT22;7779;49.596;11.070;2023-08-31T14:22:05;22.50;57.20
15359;DHT22;7779;49.596;11.070;2023-08-31T14:24:31;22.50;57.10
15359;DHT22;7779;49.596;11.070;2023-08-31T14:26:57;22.40;56.90
15359;DHT22;7779;49.596;11.070;2023-08-31T14:29:23;22.40;56.90
15359;DHT22;7779;49.596;11.070;2023-08-31T14:31:49;22.40;56.90
15359;DHT22;7779;49.596;11.070;2023-08-31T14:34:15;22.40;56.80
15359;DHT22;7779;49.596;11.070;2023-08-31T14:36:41;22.40;56.70
15359;DHT22;7779;49.596;11.070;2023-08-31T14:39:06;22.30;56.50
15359;DHT22;7779;49.596;11.070;2023-08-31T14:41:32;22.30;56.10
15359;DHT22;7779;49.596;11.070;2023-08-31T14:43:58;22.30;55.90
15359;DHT22;7779;49.596;11.070;2023-08-31T14:46:23;22.20;55.60
15359;DHT22;7779;49.596;11.070;2023-08-31T14:48:50;22.20;55.60
15359;DHT22;7779;49.596;11.070;2023-08-31T14:51:16;22.10;55.40
15359;DHT22;7779;49.596;11.070;2023-08-31T14:53:42;22.10;55.50
15359;DHT22;7779;49.596;11.070;2023-08-31T14:56:08;22.10;55.70
15359;DHT22;7779;49.596;11.070;2023-08-31T14:58:34;22.10;55.90
15359;DHT22;7779;49.596;11.070;2023-08-31T15:01:00;22.10;56.10
15359;DHT22;7779;49.596;11.070;2023-08-31T15:03:26;22.10;55.70
15359;DHT22;7779;49.596;11.070;2023-08-31T15:05:52;22.10;55.40
15359;DHT22;7779;49.596;11.070;2023-08-31T15:08:17;22.10;54.90
15359;DHT22;7779;49.596;11.070;2023-08-31T15:10:43;22.00;54.70
15359;DHT22;7779;49.596;11.070;2023-08-31T15:13:09;21.90;54.40
15359;DHT22;7779;49.596;11.070;2023-08-31T15:15:35;21.90;54.30
15359;DHT22;7779;49.596;11.070;2023-08-31T15:18:01;21.80;54.00
15359;DHT22;7779;49.596;11.070;2023-08-31T15:20:27;21.70;52.70
15359;DHT22;7779;49.596;11.070;2023-08-31T15:22:53;21.70;54.50
15359;DHT22;7779;49.596;11.070;2023-08-31T15:25:19;21.60;54.50
15359;DHT22;7779;49.596;11.070;2023-08-31T15:27:45;21.70;54.70
15359;DHT22;7779;49.596;11.070;2023-08-31T15:30:11;21.60;54.60
15359;DHT22;7779;49.596;11.070;2023-08-31T15:32:37;21.60;54.70
15359;DHT22;7779;49.596;11.070;2023-08-31T15:35:04;21.60;54.70
15359;DHT22;7779;49.596;11.070;2023-08-31T15:37:30;21.60;54.80
15359;DHT22;7779;49.596;11.070;2023-08-31T15:39:56;21.60;54.80
15359;DHT22;7779;49.596;11.070;2023-08-31T15:42:25;21.60;54.70
15359;DHT22;7779;49.596;11.070;2023-08-31T15:44:51;21.60;54.60
15359;DHT22;7779;49.596;11.070;2023-08-31T15:47:18;21.60;54.60
15359;DHT22;7779;49.596;11.070;2023-08-31T15:49:44;21.50;54.30
15359;DHT22;7779;49.596;11.070;2023-08-31T15:52:10;21.50;54.30